Time;durP1;ratioP1;P1;durP2;ratioP2;P2;SDS_P1;SDS_P2;PMS_P1;PMS_P2;Temp;Humidity;BMP_temperature;BMP_pressure;BME280_temperature;BME280_humidity;BME280_pressure;Samples;Min_cycle;Max_cycle;Signal;HPM_P1;HPM_P2
2022/05/29 00:00:57;;;;;;;3.40;1.50;;;12.90;98.00;;;;;;5033716;28;20479;-88
2022/05/29 00:03:25;;;;;;;1.60;1.37;;;12.80;98.00;;;;;;5033666;28;20452;-89
2022/05/29 00:05:53;;;;;;;1.30;1.27;;;12.60;98.00;;;;;;5033800;28;20468;-88
2022/05/29 00:08:26;;;;;;;1.93;1.63;;;12.60;98.00;;;;;;5033193;28;20481;-89
2022/05/29 00:10:53;;;;;;;1.50;1.33;;;12.60;98.00;;;;;;5031669;28;20463;-89
2022/05/29 00:13:21;;;;;;;1.30;1.30;;;12.50;98.00;;;;;;5032109;28;20458;-88
2022/05/29 00:15:48;;;;;;;1.57;1.50;;;12.50;98.00;;;;;;5032322;28;20555;-88
2022/05/29 00:18:15;;;;;;;1.67;1.40;;;12.50;98.00;;;;;;5031682;28;20486;-89
2022/05/29 00:20:46;;;;;;;1.40;1.30;;;12.40;98.00;;;;;;5031807;28;20475;-88
2022/05/29 00:23:14;;;;;;;1.50;1.37;;;12.50;98.00;;;;;;5032106;28;20433;-88
2022/05/29 00:25:42;;;;;;;1.60;1.40;;;12.40;98.00;;;;;;5032178;28;20473;-88
2022/05/29 00:28:09;;;;;;;1.30;1.27;;;12.30;98.00;;;;;;5031510;28;20488;-88
2022/05/29 00:30:36;;;;;;;1.70;1.30;;;12.20;98.00;;;;;;5032207;28;20465;-88
2022/05/29 00:33:05;;;;;;;1.30;1.20;;;12.30;98.00;;;;;;5032157;28;20466;-88
2022/05/29 00:35:32;;;;;;;2.50;1.57;;;12.40;98.00;;;;;;5032144;28;20474;-88
2022/05/29 00:38:01;;;;;;;1.70;1.53;;;12.40;98.00;;;;;;5031143;28;21102;-89
2022/05/29 00:40:36;;;;;;;1.50;1.30;;;12.30;98.00;;;;;;5031719;28;20495;-88
2022/05/29 00:43:03;;;;;;;1.40;1.27;;;12.30;98.00;;;;;;5032195;28;20516;-89
2022/05/29 00:45:38;;;;;;;1.53;1.40;;;12.20;98.00;;;;;;5031806;28;20954;-88
2022/05/29 00:48:05;;;;;;;1.33;1.30;;;12.20;98.00;;;;;;5031265;28;20487;-87
2022/05/29 00:50:33;;;;;;;2.23;1.57;;;12.00;98.00;;;;;;5031696;28;20472;-88
2022/05/29 00:53:01;;;;;;;1.50;1.30;;;12.00;98.00;;;;;;5033472;28;20474;-88
2022/05/29 00:55:30;;;;;;;1.30;1.20;;;12.10;98.00;;;;;;5035716;28;20475;-88
2022/05/29 00:58:02;;;;;;;2.00;1.43;;;12.10;98.00;;;;;;5035421;28;21058;-88
2022/05/29 01:00:32;;;;;;;1.20;1.20;;;12.10;98.00;;;;;;5035712;28;20499;-88
2022/05/29 01:03:01;;;;;;;2.40;1.97;;;12.10;98.00;;;;;;5036204;28;20462;-88
2022/05/29 01:05:31;;;;;;;2.07;1.43;;;12.20;98.00;;;;;;5035775;28;20478;-88
2022/05/29 01:08:05;;;;;;;2.27;1.30;;;12.20;98.00;;;;;;5034941;28;20484;-88
2022/05/29 01:10:46;;;;;;;1.47;1.17;;;12.40;98.00;;;;;;5036267;28;20452;-88
2022/05/29 01:13:22;;;;;;;1.90;1.60;;;12.40;98.00;;;;;;5037508;28;20474;-88
2022/05/29 01:15:57;;;;;;;1.70;1.70;;;12.40;98.00;;;;;;5037013;28;20458;-88
2022/05/29 01:18:32;;;;;;;1.20;1.10;;;12.60;98.00;;;;;;5036688;28;21004;-88
2022/05/29 01:21:20;;;;;;;2.53;2.00;;;12.60;98.00;;;;;;5035171;28;20871;-89
2022/05/29 01:24:19;;;;;;;1.57;1.50;;;12.80;98.00;;;;;;5035542;28;20513;-88
2022/05/29 01:27:19;;;;;;;1.70;1.30;;;12.50;98.00;;;;;;5035113;28;20981;-88
2022/05/29 01:30:00;;;;;;;3.93;1.93;;;12.70;98.00;;;;;;5023827;28;20459;-88
2022/05/29 01:32:36;;;;;;;1.30;1.30;;;12.80;98.00;;;;;;5035360;28;20868;-88
2022/05/29 01:35:10;;;;;;;1.30;1.10;;;12.50;98.00;;;;;;5035156;28;20456;-88
2022/05/29 01:37:43;;;;;;;1.50;1.27;;;12.30;98.00;;;;;;5034390;28;20993;-89
2022/05/29 01:40:16;;;;;;;1.93;1.20;;;12.40;98.00;;;;;;5035064;28;20457;-89
2022/05/29 01:42:48;;;;;;;1.50;1.20;;;12.50;98.00;;;;;;5035110;28;20437;-88
2022/05/29 01:45:22;;;;;;;1.60;1.30;;;12.30;98.00;;;;;;5035332;28;20470;-89
2022/05/29 01:47:51;;;;;;;1.80;1.50;;;12.30;98.00;;;;;;5034447;28;20488;-88
2022/05/29 01:50:24;;;;;;;2.60;1.60;;;12.20;98.00;;;;;;5034322;28;20957;-87
2022/05/29 01:52:55;;;;;;;1.40;1.30;;;12.10;98.00;;;;;;5034453;28;20454;-88
2022/05/29 01:55:28;;;;;;;1.30;1.27;;;12.00;98.00;;;;;;5034666;28;20471;-89
2022/05/29 01:58:00;;;;;;;1.40;1.10;;;11.90;98.00;;;;;;5034030;28;20475;-88
2022/05/29 02:00:29;;;;;;;1.40;1.20;;;12.10;98.00;;;;;;5034421;28;20460;-88
2022/05/29 02:03:02;;;;;;;1.23;1.20;;;12.20;98.00;;;;;;5034421;28;20468;-88
2022/05/29 02:05:33;;;;;;;1.80;1.20;;;12.10;98.00;;;;;;5033335;28;20444;-88
2022/05/29 02:08:04;;;;;;;1.80;1.73;;;12.00;98.00;;;;;;5033838;28;20484;-88
2022/05/29 02:10:37;;;;;;;1.60;1.40;;;11.80;98.00;;;;;;5034334;28;20458;-88
2022/05/29 02:13:10;;;;;;;1.37;1.20;;;11.70;98.00;;;;;;5034705;28;20455;-88
2022/05/29 02:15:45;;;;;;;1.50;1.40;;;11.70;98.00;;;;;;5034060;28;20465;-88
2022/05/29 02:18:18;;;;;;;1.30;1.17;;;11.70;98.00;;;;;;5033788;28;20488;-88
2022/05/29 02:20:51;;;;;;;1.50;1.30;;;11.80;98.00;;;;;;5034017;28;20684;-87
2022/05/29 02:23:24;;;;;;;1.30;1.07;;;12.20;98.00;;;;;;5034356;28;20983;-88
2022/05/29 02:25:53;;;;;;;1.77;1.60;;;12.40;98.00;;;;;;5034460;28;20479;-88
2022/05/29 02:28:26;;;;;;;1.93;1.60;;;12.30;98.00;;;;;;5033496;28;20482;-89
2022/05/29 02:31:05;;;;;;;1.20;1.10;;;12.20;98.00;;;;;;5034032;28;20546;-90
2022/05/29 02:33:40;;;;;;;2.27;1.57;;;12.20;98.00;;;;;;5034665;28;20440;-89
2022/05/29 02:36:23;;;;;;;1.60;1.30;;;12.10;98.00;;;;;;5034058;28;20448;-89
2022/05/29 02:39:03;;;;;;;1.77;1.40;;;12.20;98.00;;;;;;5033461;28;20987;-90
2022/05/29 02:41:38;;;;;;;2.33;1.43;;;12.10;98.00;;;;;;5035385;28;20474;-89
2022/05/29 02:44:13;;;;;;;1.60;1.20;;;11.90;98.00;;;;;;5034751;28;20467;-88
2022/05/29 02:46:46;;;;;;;1.87;1.30;;;11.80;98.00;;;;;;5033572;28;20483;-88
2022/05/29 02:49:19;;;;;;;1.80;1.80;;;11.80;98.00;;;;;;5033374;28;20448;-88
2022/05/29 02:51:51;;;;;;;1.97;1.73;;;11.80;98.00;;;;;;5033498;28;20471;-88
2022/05/29 02:54:23;;;;;;;1.67;1.40;;;11.90;98.00;;;;;;5033787;28;20942;-88
2022/05/29 02:56:50;;;;;;;1.50;1.50;;;11.80;98.00;;;;;;5033530;28;20476;-88
2022/05/29 02:59:17;;;;;;;2.00;1.40;;;11.80;98.00;;;;;;5033309;28;20455;-88
2022/05/29 03:01:53;;;;;;;1.40;1.30;;;11.80;98.00;;;;;;5032865;28;20997;-88
2022/05/29 03:04:32;;;;;;;1.70;1.27;;;11.90;98.00;;;;;;5033308;28;20500;-88
2022/05/29 03:07:05;;;;;;;2.10;1.27;;;12.20;98.00;;;;;;5033073;28;20988;-89
2022/05/29 03:09:45;;;;;;;1.77;1.57;;;12.50;98.00;;;;;;5033337;28;20877;-88
2022/05/29 03:12:23;;;;;;;4.03;1.50;;;12.50;98.00;;;;;;5033241;28;20798;-88
2022/05/29 03:15:01;;;;;;;2.43;1.50;;;12.30;98.00;;;;;;5033062;28;20472;-88
2022/05/29 03:17:40;;;;;;;1.50;1.23;;;12.30;98.00;;;;;;5032446;28;20475;-89
2022/05/29 03:20:13;;;;;;;1.40;1.30;;;12.30;98.00;;;;;;5033244;28;20837;-88
2022/05/29 03:22:50;;;;;;;1.83;1.80;;;12.30;98.00;;;;;;5032830;28;20555;-89
2022/05/29 03:25:23;;;;;;;1.47;1.20;;;12.30;98.00;;;;;;5033263;28;20459;-89
2022/05/29 03:27:53;;;;;;;1.40;1.23;;;12.20;98.00;;;;;;5032249;28;20486;-88
2022/05/29 03:30:23;;;;;;;1.50;1.10;;;12.00;98.00;;;;;;5033119;28;20541;-89
2022/05/29 03:32:55;;;;;;;1.30;1.23;;;11.80;98.00;;;;;;5032729;28;21006;-88
2022/05/29 03:35:25;;;;;;;1.37;1.37;;;11.60;98.00;;;;;;5033175;28;20450;-88
2022/05/29 03:37:53;;;;;;;2.00;1.67;;;11.50;98.00;;;;;;5032369;28;20544;-88
2022/05/29 03:40:20;;;;;;;2.13;1.47;;;11.40;98.00;;;;;;5032233;28;20465;-88
2022/05/29 03:42:48;;;;;;;1.50;1.20;;;11.40;98.00;;;;;;5032718;28;20972;-88
2022/05/29 03:45:15;;;;;;;1.87;1.27;;;11.40;98.00;;;;;;5032545;28;20468;-88
2022/05/29 03:47:42;;;;;;;2.33;1.30;;;11.40;98.00;;;;;;5032056;28;20845;-88
2022/05/29 03:50:12;;;;;;;1.97;1.33;;;11.50;98.00;;;;;;5032277;28;20473;-88
2022/05/29 03:52:40;;;;;;;1.90;1.43;;;11.70;98.00;;;;;;5032590;28;20534;-89
2022/05/29 03:55:08;;;;;;;2.57;1.50;;;11.80;98.00;;;;;;5032686;28;20515;-88
2022/05/29 03:57:36;;;;;;;2.50;1.47;;;11.80;98.00;;;;;;5031873;28;20576;-88
2022/05/29 04:00:03;;;;;;;1.73;1.40;;;11.80;98.00;;;;;;5032318;28;20460;-89
2022/05/29 04:02:31;;;;;;;2.77;1.53;;;11.80;98.00;;;;;;5032199;28;20480;-88
2022/05/29 04:04:58;;;;;;;2.20;1.47;;;11.80;98.00;;;;;;5032408;28;20828;-88
2022/05/29 04:12:53;;;;;;;1.40;1.30;;;12.00;98.00;;;;;;5032493;28;20574;-88
2022/05/29 04:15:20;;;;;;;1.30;1.20;;;12.20;98.00;;;;;;5032440;28;20714;-87
2022/05/29 04:17:47;;;;;;;1.50;1.43;;;12.40;98.00;;;;;;5031485;28;20489;-89
2022/05/29 04:20:15;;;;;;;1.40;1.33;;;12.50;98.00;;;;;;5032000;28;20449;-89
2022/05/29 04:22:43;;;;;;;1.53;1.20;;;12.20;98.00;;;;;;5032423;28;20470;-88
2022/05/29 04:25:11;;;;;;;1.20;1.10;;;12.30;98.00;;;;;;5032068;28;20805;-88
2022/05/29 04:27:38;;;;;;;3.00;1.67;;;12.10;98.00;;;;;;5030612;28;20489;-88
2022/05/29 04:30:08;;;;;;;1.70;1.27;;;12.20;98.00;;;;;;5031922;28;20455;-88
2022/05/29 04:35:20;;;;;;;1.63;1.30;;;12.30;98.00;;;;;;5032076;28;20433;-88
2022/05/29 04:37:49;;;;;;;1.90;1.23;;;12.30;98.00;;;;;;5031565;28;20489;-88
2022/05/29 04:40:16;;;;;;;1.40;1.20;;;12.10;98.00;;;;;;5031649;28;20473;-88
2022/05/29 04:42:43;;;;;;;1.30;1.07;;;12.10;98.00;;;;;;5032063;28;20516;-89
2022/05/29 04:45:11;;;;;;;2.27;1.43;;;12.10;98.00;;;;;;5032057;28;20450;-88
2022/05/29 04:47:38;;;;;;;1.40;1.20;;;12.10;98.00;;;;;;5031111;28;20490;-89
2022/05/29 04:50:07;;;;;;;1.53;1.20;;;12.00;98.00;;;;;;5031538;28;20479;-88
2022/05/29 04:52:35;;;;;;;1.50;1.40;;;12.20;98.00;;;;;;5031959;28;20521;-88
2022/05/29 04:55:04;;;;;;;1.20;1.10;;;12.20;98.00;;;;;;5031639;28;20496;-88
2022/05/29 04:57:31;;;;;;;2.07;1.40;;;12.30;98.00;;;;;;5031251;28;20481;-87
2022/05/29 04:59:58;;;;;;;1.50;1.30;;;12.30;98.00;;;;;;5031760;28;20465;-89
2022/05/29 05:02:26;;;;;;;1.40;1.17;;;12.20;98.00;;;;;;5032045;28;20493;-89
2022/05/29 05:04:53;;;;;;;1.90;1.57;;;12.40;98.00;;;;;;5031743;28;20977;-89
2022/05/29 05:07:20;;;;;;;1.20;1.00;;;12.30;98.00;;;;;;5031468;28;20478;-89
2022/05/29 05:09:48;;;;;;;2.47;1.20;;;12.40;98.00;;;;;;5031823;28;20472;-88
2022/05/29 05:12:16;;;;;;;1.60;1.43;;;12.50;98.00;;;;;;5031787;28;20461;-88
2022/05/29 05:14:43;;;;;;;3.93;2.07;;;12.60;98.00;;;;;;5031535;28;20854;-88
2022/05/29 05:17:11;;;;;;;1.40;1.20;;;12.60;98.00;;;;;;5031375;28;20492;-89
2022/05/29 05:19:38;;;;;;;1.50;1.50;;;12.80;98.00;;;;;;5031374;28;20473;-88
2022/05/29 05:22:08;;;;;;;1.93;1.60;;;12.80;98.00;;;;;;5031432;28;20522;-89
2022/05/29 05:24:38;;;;;;;1.50;1.50;;;12.80;98.00;;;;;;5031353;28;20466;-88
2022/05/29 05:27:05;;;;;;;1.40;1.30;;;12.80;98.00;;;;;;5030716;28;20477;-88
2022/05/29 05:29:34;;;;;;;1.93;1.40;;;12.70;98.00;;;;;;5031302;28;20961;-88
2022/05/29 05:32:02;;;;;;;2.47;1.60;;;12.70;98.00;;;;;;5031328;28;20524;-88
2022/05/29 05:34:29;;;;;;;1.80;1.37;;;12.80;98.00;;;;;;5031634;28;20463;-89
2022/05/29 05:36:56;;;;;;;2.23;1.70;;;12.80;98.00;;;;;;5030805;28;20487;-88
2022/05/29 05:39:24;;;;;;;1.40;1.40;;;12.80;98.00;;;;;;5035914;28;20455;-89
2022/05/29 05:41:51;;;;;;;2.17;1.50;;;12.90;98.00;;;;;;5034526;28;20475;-88
2022/05/29 05:44:18;;;;;;;1.57;1.50;;;13.00;98.00;;;;;;5034749;28;20470;-88
2022/05/29 05:46:49;;;;;;;1.77;1.70;;;13.20;98.00;;;;;;5034885;28;20475;-88
2022/05/29 05:49:18;;;;;;;2.17;1.40;;;13.20;98.00;;;;;;5034797;28;20829;-88
2022/05/29 05:51:45;;;;;;;1.50;1.20;;;13.40;98.00;;;;;;5034622;28;20884;-88
2022/05/29 05:54:12;;;;;;;1.93;1.40;;;13.50;98.00;;;;;;5034750;28;20451;-88
2022/05/29 05:56:42;;;;;;;1.80;1.23;;;13.50;98.00;;;;;;5034802;28;20889;-88
2022/05/29 05:59:09;;;;;;;1.60;1.10;;;13.50;98.00;;;;;;5034276;28;20440;-88
2022/05/29 06:01:37;;;;;;;3.10;1.20;;;13.50;98.00;;;;;;5034667;28;20475;-88
2022/05/29 06:04:06;;;;;;;11.43;3.30;;;13.40;98.00;;;;;;5034533;28;20504;-89
2022/05/29 06:06:33;;;;;;;1.97;1.30;;;13.30;98.00;;;;;;5034469;28;20831;-89
2022/05/29 06:09:01;;;;;;;1.70;1.40;;;13.30;98.00;;;;;;5033840;28;20474;-88
2022/05/29 06:11:30;;;;;;;1.37;1.20;;;13.30;98.00;;;;;;5034555;28;20472;-88
2022/05/29 06:13:57;;;;;;;1.70;1.40;;;13.30;98.00;;;;;;5034675;28;20459;-88
2022/05/29 06:16:25;;;;;;;1.50;1.40;;;13.30;98.00;;;;;;5034478;28;20809;-89
2022/05/29 06:18:52;;;;;;;1.93;1.47;;;13.20;98.00;;;;;;5033765;28;20440;-89
2022/05/29 06:21:21;;;;;;;1.77;1.43;;;13.10;98.00;;;;;;5034315;28;20457;-88
2022/05/29 06:23:48;;;;;;;1.40;1.33;;;13.00;98.00;;;;;;5034497;28;20483;-88
2022/05/29 06:26:15;;;;;;;2.20;1.70;;;13.10;98.00;;;;;;5034420;28;20469;-89
2022/05/29 06:28:42;;;;;;;1.73;1.13;;;13.10;98.00;;;;;;5051609;28;20466;-89
2022/05/29 06:31:12;;;;;;;1.40;1.20;;;13.00;98.00;;;;;;5053666;28;20561;-89
2022/05/29 06:33:39;;;;;;;1.40;1.23;;;12.90;98.00;;;;;;5053795;28;20941;-90
2022/05/29 06:36:08;;;;;;;1.20;1.03;;;12.80;98.00;;;;;;5053849;28;20464;-89
2022/05/29 06:38:36;;;;;;;2.83;2.40;;;12.80;98.00;;;;;;5053447;28;20491;-88
2022/05/29 06:41:06;;;;;;;1.87;1.40;;;12.80;98.00;;;;;;5053442;28;20456;-89
2022/05/29 06:43:33;;;;;;;1.53;1.37;;;12.90;98.00;;;;;;5053733;28;20481;-88
2022/05/29 06:46:01;;;;;;;1.50;1.30;;;13.00;98.00;;;;;;5053749;28;20465;-89
2022/05/29 06:48:29;;;;;;;1.20;1.00;;;12.90;98.00;;;;;;5053097;28;20483;-89
2022/05/29 06:50:56;;;;;;;1.60;1.20;;;13.10;98.00;;;;;;5052958;28;20537;-89
2022/05/29 06:53:24;;;;;;;1.80;1.60;;;13.10;98.00;;;;;;5053910;28;20463;-89
2022/05/29 06:55:54;;;;;;;1.70;1.27;;;13.00;98.00;;;;;;5053192;28;20448;-89
2022/05/29 06:58:22;;;;;;;2.00;1.33;;;12.80;98.00;;;;;;5052966;28;20996;-89
2022/05/29 07:08:59;;;;;;;2.50;1.73;;;12.70;98.00;;;;;;5048017;28;20451;-89
2022/05/29 07:11:30;;;;;;;1.20;1.07;;;12.90;98.00;;;;;;5053499;28;20447;-90
2022/05/29 07:13:58;;;;;;;2.90;1.40;;;13.10;98.00;;;;;;5053546;28;20509;-88
2022/05/29 07:16:25;;;;;;;1.30;1.10;;;13.30;98.00;;;;;;5053258;28;20945;-89
2022/05/29 07:18:54;;;;;;;1.80;1.67;;;13.50;98.00;;;;;;5048750;28;20463;-89
2022/05/29 07:21:22;;;;;;;2.13;1.20;;;13.60;98.00;;;;;;5051852;28;20494;-87
2022/05/29 07:23:49;;;;;;;1.30;1.30;;;13.60;98.00;;;;;;5053360;28;20902;-89
2022/05/29 07:26:17;;;;;;;1.70;1.30;;;13.90;98.00;;;;;;5054605;28;20460;-88
2022/05/29 07:28:45;;;;;;;1.57;1.30;;;14.00;98.00;;;;;;5055029;28;20493;-88
2022/05/29 07:31:12;;;;;;;1.40;1.20;;;14.10;98.00;;;;;;5046515;28;20460;-89
2022/05/29 07:33:39;;;;;;;1.67;1.50;;;14.10;98.00;;;;;;5033539;28;20472;-89
2022/05/29 07:36:09;;;;;;;1.40;1.10;;;14.30;98.00;;;;;;5034323;28;20501;-87
2022/05/29 07:38:36;;;;;;;1.23;1.07;;;14.30;98.00;;;;;;5034565;28;20564;-87
2022/05/29 07:43:18;;;;;;;1.53;1.27;;;14.40;98.00;;;;;;5032840;28;20473;-87
2022/05/29 07:43:53;;;;;;;1.87;1.30;;;14.40;98.00;;;;;;5030663;28;20486;-87
2022/05/29 07:46:20;;;;;;;1.40;1.30;;;14.40;98.00;;;;;;5031596;28;20519;-88
2022/05/29 07:48:48;;;;;;;1.40;1.30;;;14.30;98.00;;;;;;5031116;28;20464;-87
2022/05/29 07:51:15;;;;;;;1.40;1.33;;;14.30;98.00;;;;;;5031314;28;20483;-88
2022/05/29 07:53:43;;;;;;;1.40;1.20;;;14.30;98.00;;;;;;5031450;28;20468;-88
2022/05/29 07:56:11;;;;;;;2.13;1.40;;;14.40;98.00;;;;;;5031370;28;20463;-88
2022/05/29 07:58:39;;;;;;;1.90;1.80;;;14.40;98.00;;;;;;5031063;28;20505;-88
2022/05/29 08:01:07;;;;;;;1.20;1.10;;;14.70;98.00;;;;;;5031377;28;20469;-87
2022/05/29 08:03:35;;;;;;;1.50;1.30;;;14.90;98.00;;;;;;5030693;28;20478;-88
2022/05/29 08:06:02;;;;;;;1.73;1.13;;;15.10;98.00;;;;;;5031504;28;20448;-88
2022/05/29 08:08:31;;;;;;;2.93;1.30;;;15.40;98.00;;;;;;5030616;28;20477;-88
2022/05/29 08:10:59;;;;;;;1.40;1.40;;;15.60;98.00;;;;;;5030918;28;20466;-88
2022/05/29 08:13:26;;;;;;;1.50;1.30;;;15.70;98.00;;;;;;5031326;28;20827;-89
2022/05/29 08:15:53;;;;;;;2.17;1.47;;;15.80;98.00;;;;;;5031186;28;20542;-87
2022/05/29 08:18:22;;;;;;;1.60;1.30;;;15.90;98.00;;;;;;5031418;28;20974;-88
2022/05/29 08:20:49;;;;;;;1.70;1.50;;;16.00;98.00;;;;;;5031476;28;20473;-88
2022/05/29 08:23:16;;;;;;;1.30;1.30;;;16.10;98.00;;;;;;5031038;28;20485;-89
2022/05/29 08:31:23;;;;;;;1.30;1.20;;;16.40;98.00;;;;;;5032620;28;20806;-89
2022/05/29 08:33:52;;;;;;;1.40;1.20;;;16.50;97.20;;;;;;5032799;28;20457;-89
2022/05/29 08:36:24;;;;;;;1.50;1.30;;;16.60;98.00;;;;;;5033096;28;20458;-89
2022/05/29 08:38:53;;;;;;;2.13;1.30;;;16.60;98.00;;;;;;5033479;28;20470;-88
2022/05/29 08:41:26;;;;;;;1.57;1.10;;;16.70;97.00;;;;;;5031989;28;20462;-88
2022/05/29 08:44:03;;;;;;;2.37;1.30;;;16.70;97.60;;;;;;5031810;28;20493;-88
2022/05/29 08:46:36;;;;;;;1.30;1.30;;;16.90;95.70;;;;;;5031090;28;20970;-88
2022/05/29 08:49:06;;;;;;;1.80;1.53;;;17.20;97.00;;;;;;5031162;28;20492;-89
2022/05/29 08:51:59;;;;;;;1.70;1.27;;;17.40;95.80;;;;;;5031133;28;20993;-88
2022/05/29 08:54:41;;;;;;;1.60;1.40;;;17.50;95.60;;;;;;5031597;28;20507;-89
2022/05/29 08:57:18;;;;;;;1.60;1.40;;;17.60;94.20;;;;;;5030849;28;20489;-88
2022/05/29 08:59:52;;;;;;;1.20;1.10;;;17.40;94.40;;;;;;5031474;28;20469;-89
2022/05/29 09:02:36;;;;;;;1.53;1.40;;;17.30;93.70;;;;;;5030785;28;20818;-88
2022/05/29 09:05:09;;;;;;;1.40;1.20;;;17.30;94.90;;;;;;5031552;28;20450;-88
2022/05/29 09:07:38;;;;;;;2.13;1.53;;;17.40;93.60;;;;;;5030630;28;20474;-88
2022/05/29 09:10:10;;;;;;;1.60;1.40;;;17.40;92.90;;;;;;5030826;28;20458;-88
2022/05/29 09:12:41;;;;;;;1.50;1.10;;;17.10;91.80;;;;;;5030948;28;20524;-89
2022/05/29 09:15:14;;;;;;;1.63;1.33;;;16.90;94.70;;;;;;5034409;28;20932;-88
2022/05/29 09:17:49;;;;;;;1.47;1.20;;;16.70;96.00;;;;;;5034225;28;20478;-89
2022/05/29 09:20:27;;;;;;;1.30;1.10;;;16.40;93.50;;;;;;5034773;28;20992;-88
2022/05/29 09:22:57;;;;;;;1.33;1.27;;;16.10;92.60;;;;;;5034605;28;20911;-88
2022/05/29 09:25:30;;;;;;;1.40;1.10;;;15.70;93.40;;;;;;5034561;28;20898;-88
2022/05/29 09:28:01;;;;;;;1.20;1.07;;;15.10;97.20;;;;;;5034024;28;20479;-87
2022/05/29 09:30:29;;;;;;;1.20;1.20;;;14.60;98.00;;;;;;5034272;28;20458;-88
2022/05/29 09:32:59;;;;;;;1.30;1.23;;;14.30;98.00;;;;;;5034829;28;20463;-88
2022/05/29 09:35:34;;;;;;;1.30;1.20;;;14.10;98.00;;;;;;5034109;28;21018;-88
2022/05/29 09:38:07;;;;;;;1.30;1.20;;;13.90;98.00;;;;;;5033667;28;20810;-88
2022/05/29 09:40:41;;;;;;;1.40;1.17;;;13.60;98.00;;;;;;5034853;28;20466;-88
2022/05/29 09:43:16;;;;;;;1.40;1.10;;;13.30;98.00;;;;;;5034918;28;20498;-88
2022/05/29 09:45:43;;;;;;;1.30;1.20;;;13.00;98.00;;;;;;5034410;28;20466;-88
2022/05/29 09:51:17;;;;;;;3.30;2.07;;;12.60;98.00;;;;;;5033879;28;20459;-88
2022/05/29 09:53:49;;;;;;;1.30;1.20;;;12.60;98.00;;;;;;5034843;28;20462;-88
2022/05/29 09:56:26;;;;;;;1.40;1.20;;;12.40;98.00;;;;;;5034628;28;20853;-88
2022/05/29 09:58:56;;;;;;;2.03;1.33;;;12.50;98.00;;;;;;5033014;28;20553;-88
2022/05/29 10:01:33;;;;;;;1.60;1.30;;;12.60;98.00;;;;;;5034369;28;20460;-88
2022/05/29 10:04:03;;;;;;;1.30;1.30;;;12.50;98.00;;;;;;5034227;28;20490;-88
2022/05/29 10:06:37;;;;;;;3.10;1.37;;;12.60;98.00;;;;;;5034241;28;20498;-88
2022/05/29 10:09:11;;;;;;;1.20;1.10;;;12.60;98.00;;;;;;5033201;28;20480;-87
2022/05/29 10:11:39;;;;;;;1.97;1.37;;;12.60;98.00;;;;;;5034178;28;20557;-88
2022/05/29 10:14:26;;;;;;;2.13;1.40;;;12.70;98.00;;;;;;5034138;28;20451;-88
2022/05/29 10:16:55;;;;;;;1.20;1.03;;;12.80;98.00;;;;;;5033408;28;20482;-87
2022/05/29 10:19:35;;;;;;;1.30;1.10;;;12.80;98.00;;;;;;5034219;28;20458;-88
2022/05/29 10:22:09;;;;;;;1.33;1.10;;;12.60;98.00;;;;;;5034027;28;20535;-88
2022/05/29 10:24:39;;;;;;;1.57;1.20;;;12.50;98.00;;;;;;5033970;28;20548;-88
2022/05/29 10:27:11;;;;;;;1.40;1.20;;;12.30;98.00;;;;;;5033367;28;20492;-88
2022/05/29 10:29:40;;;;;;;1.40;1.20;;;12.40;98.00;;;;;;5033881;28;20472;-88
2022/05/29 10:32:10;;;;;;;1.20;0.97;;;11.70;98.00;;;;;;5033165;28;20463;-89
2022/05/29 10:34:41;;;;;;;1.63;1.20;;;11.70;98.00;;;;;;5033233;28;20960;-89
2022/05/29 10:37:30;;;;;;;1.20;1.07;;;11.70;98.00;;;;;;5033001;28;20487;-89
2022/05/29 10:40:22;;;;;;;1.50;1.20;;;11.70;98.00;;;;;;5033992;28;20452;-88
2022/05/29 10:42:51;;;;;;;1.20;1.10;;;11.60;98.00;;;;;;5035523;28;20463;-88
2022/05/29 10:45:21;;;;;;;1.20;1.20;;;11.60;98.00;;;;;;5034585;28;20963;-88
2022/05/29 10:48:06;;;;;;;1.60;1.30;;;11.50;98.00;;;;;;5033212;28;20999;-87
2022/05/29 10:50:45;;;;;;;1.20;1.00;;;11.20;98.00;;;;;;5032959;28;20474;-88
2022/05/29 10:53:22;;;;;;;1.33;1.10;;;11.10;98.00;;;;;;5033309;28;20459;-87
2022/05/29 10:55:55;;;;;;;1.53;1.27;;;11.10;98.00;;;;;;5033126;28;20463;-87
2022/05/29 10:59:07;;;;;;;1.20;0.90;;;11.00;98.00;;;;;;5032710;28;20552;-87
2022/05/29 11:04:56;;;;;;;1.40;1.20;;;11.10;98.00;;;;;;5033036;28;20992;-88
2022/05/29 11:07:38;;;;;;;1.50;1.20;;;11.50;98.00;;;;;;5032508;28;20492;-88
2022/05/29 11:10:26;;;;;;;1.30;1.20;;;11.50;98.00;;;;;;5033313;28;21019;-88
2022/05/29 11:13:10;;;;;;;1.30;1.17;;;11.70;98.00;;;;;;5033105;28;20472;-88
2022/05/29 11:15:47;;;;;;;1.93;1.30;;;11.80;98.00;;;;;;5033164;28;20462;-88
2022/05/29 11:18:43;;;;;;;1.20;1.10;;;11.90;98.00;;;;;;5032305;28;20567;-88
2022/05/29 11:21:21;;;;;;;1.77;1.30;;;12.00;98.00;;;;;;5029074;28;20476;-88
2022/05/29 11:24:05;;;;;;;1.20;1.00;;;12.00;98.00;;;;;;5032736;28;20496;-88
2022/05/29 11:26:44;;;;;;;1.20;1.03;;;12.00;98.00;;;;;;5032595;28;20466;-88
2022/05/29 11:29:28;;;;;;;1.20;1.00;;;11.90;98.00;;;;;;5032434;28;20487;-87
2022/05/29 11:32:01;;;;;;;1.37;1.20;;;11.90;98.00;;;;;;5031825;28;20504;-88
2022/05/29 11:34:35;;;;;;;1.47;1.10;;;12.00;98.00;;;;;;5032203;28;20465;-88
2022/05/29 11:37:25;;;;;;;1.50;1.30;;;12.20;98.00;;;;;;5032210;28;21124;-87
2022/05/29 11:39:59;;;;;;;1.30;1.00;;;12.50;98.00;;;;;;5026712;28;20440;-88
2022/05/29 11:42:33;;;;;;;1.73;1.13;;;12.50;98.00;;;;;;5031946;28;20499;-88
2022/05/29 11:45:06;;;;;;;2.63;1.40;;;12.50;98.00;;;;;;5031616;28;20485;-87
2022/05/29 11:53:24;;;;;;;1.40;1.27;;;12.70;98.00;;;;;;5033209;28;20475;-88
2022/05/29 11:55:55;;;;;;;1.20;1.10;;;12.80;98.00;;;;;;5032496;28;20561;-88
2022/05/29 11:58:29;;;;;;;2.13;1.40;;;12.90;98.00;;;;;;5031160;28;20492;-88
2022/05/29 12:01:01;;;;;;;1.20;1.10;;;12.90;98.00;;;;;;5031337;28;20469;-88
2022/05/29 12:03:37;;;;;;;1.93;1.20;;;13.00;98.00;;;;;;5031950;28;20467;-88
2022/05/29 12:06:12;;;;;;;1.30;1.13;;;13.00;98.00;;;;;;5032340;28;20454;-87
2022/05/29 12:08:55;;;;;;;1.40;1.27;;;13.00;98.00;;;;;;5032134;28;20490;-88
2022/05/29 12:11:48;;;;;;;1.40;1.30;;;13.00;98.00;;;;;;5032182;28;20461;-88
2022/05/29 12:14:22;;;;;;;1.30;1.00;;;13.10;98.00;;;;;;5017997;28;20463;-87
2022/05/29 12:16:54;;;;;;;1.50;1.27;;;13.30;98.00;;;;;;5031329;28;20503;-88
2022/05/29 12:19:27;;;;;;;1.30;1.10;;;13.30;98.00;;;;;;5031977;28;20462;-88
2022/05/29 12:21:58;;;;;;;1.20;1.07;;;13.30;98.00;;;;;;5031796;28;20486;-88
2022/05/29 12:24:29;;;;;;;1.40;1.30;;;13.20;98.00;;;;;;5031239;28;20484;-88
2022/05/29 12:27:03;;;;;;;1.40;1.10;;;13.10;98.00;;;;;;5031365;28;20512;-88
2022/05/29 12:29:35;;;;;;;1.40;1.23;;;13.20;98.00;;;;;;5031688;28;20461;-88
2022/05/29 12:32:07;;;;;;;1.30;1.20;;;13.30;98.00;;;;;;5031684;28;20472;-88
2022/05/29 12:34:41;;;;;;;1.50;1.40;;;13.50;98.00;;;;;;5031943;28;20463;-88
2022/05/29 12:37:52;;;;;;;2.60;1.20;;;13.70;98.00;;;;;;5031563;28;20545;-88
2022/05/29 12:41:02;;;;;;;2.13;1.30;;;14.00;98.00;;;;;;5031859;28;20471;-88
2022/05/29 12:44:10;;;;;;;1.30;1.20;;;14.40;98.00;;;;;;5031695;28;20471;-88
2022/05/29 12:47:13;;;;;;;1.53;1.20;;;15.20;98.00;;;;;;5031582;28;20462;-88
2022/05/29 12:50:20;;;;;;;1.40;1.23;;;15.90;98.00;;;;;;5034348;28;20826;-88
2022/05/29 12:53:23;;;;;;;1.50;1.20;;;16.30;98.00;;;;;;5035702;28;20522;-89
2022/05/29 12:56:08;;;;;;;1.60;1.10;;;17.00;98.00;;;;;;5033552;28;20472;-88
2022/05/29 12:59:05;;;;;;;1.40;1.00;;;17.50;98.00;;;;;;5034935;28;20480;-89
2022/05/29 13:01:55;;;;;;;1.57;1.33;;;17.10;98.00;;;;;;5035678;28;21026;-88
2022/05/29 13:04:51;;;;;;;1.50;1.20;;;16.90;98.00;;;;;;5035777;28;20504;-88
2022/05/29 13:07:24;;;;;;;1.40;1.30;;;16.70;98.00;;;;;;5031210;28;20481;-88
2022/05/29 13:10:20;;;;;;;1.40;1.20;;;16.30;98.00;;;;;;5035620;28;20946;-89
2022/05/29 13:12:51;;;;;;;1.73;1.37;;;16.20;98.00;;;;;;5035550;28;21119;-89
2022/05/29 13:15:33;;;;;;;1.40;1.10;;;16.50;98.00;;;;;;5035428;28;20975;-88
2022/05/29 13:18:10;;;;;;;1.40;1.10;;;17.00;98.00;;;;;;5034745;28;20485;-88
2022/05/29 13:21:05;;;;;;;1.73;1.53;;;17.50;98.00;;;;;;5035814;28;20923;-88
2022/05/29 13:23:33;;;;;;;1.40;1.23;;;18.10;98.00;;;;;;5034584;28;20451;-88
2022/05/29 13:26:19;;;;;;;2.57;1.37;;;18.30;98.00;;;;;;5034762;28;20565;-88
2022/05/29 13:28:59;;;;;;;1.20;1.20;;;18.70;98.00;;;;;;5034379;28;20467;-88
2022/05/29 13:31:31;;;;;;;1.30;1.10;;;19.10;95.50;;;;;;5034797;28;20524;-88
2022/05/29 13:34:27;;;;;;;1.20;1.13;;;19.30;98.00;;;;;;5035178;28;20466;-88
2022/05/29 13:37:01;;;;;;;1.30;1.20;;;19.70;94.30;;;;;;5034394;28;20483;-88
2022/05/29 13:40:03;;;;;;;1.20;1.10;;;19.60;95.00;;;;;;5035091;28;20461;-88
2022/05/29 13:42:49;;;;;;;1.70;1.23;;;19.90;89.50;;;;;;5032340;28;20461;-89
2022/05/29 13:45:53;;;;;;;1.30;1.10;;;20.00;95.70;;;;;;5034601;28;21019;-88
2022/05/29 13:48:24;;;;;;;1.53;1.20;;;20.20;93.20;;;;;;5032026;28;20482;-89
2022/05/29 13:51:01;;;;;;;1.30;1.20;;;20.50;89.00;;;;;;5034046;28;20910;-88
2022/05/29 13:53:56;;;;;;;1.20;1.10;;;20.40;84.80;;;;;;5034785;28;20854;-89